sensor_id;sensor_type;location;lat;lon;timestamp;temperature;humidity
19365;DHT22;9818;48.382;10.850;2022-10-23T00:00:04;10.10;99.90
19365;DHT22;9818;48.382;10.850;2022-10-23T00:02:36;10.10;99.90
19365;DHT22;9818;48.382;10.850;2022-10-23T00:05:05;10.10;99.90
19365;DHT22;9818;48.382;10.850;2022-10-23T00:07:36;10.10;99.90
19365;DHT22;9818;48.382;10.850;2022-10-23T00:10:09;10.00;99.90
19365;DHT22;9818;48.382;10.850;2022-10-23T00:12:41;10.00;99.90
19365;DHT22;9818;48.382;10.850;2022-10-23T00:15:12;10.00;99.90
19365;DHT22;9818;48.382;10.850;2022-10-23T00:17:48;10.00;99.90
19365;DHT22;9818;48.382;10.850;2022-10-23T00:20:18;10.00;99.90
19365;DHT22;9818;48.382;10.850;2022-10-23T00:22:51;10.00;99.90
19365;DHT22;9818;48.382;10.850;2022-10-23T00:25:23;9.90;99.90
19365;DHT22;9818;48.382;10.850;2022-10-23T00:27:53;9.90;99.90
19365;DHT22;9818;48.382;10.850;2022-10-23T00:30:26;9.90;99.90
19365;DHT22;9818;48.382;10.850;2022-10-23T00:32:58;9.80;99.90
19365;DHT22;9818;48.382;10.850;2022-10-23T00:35:27;9.80;99.90
19365;DHT22;9818;48.382;10.850;2022-10-23T00:37:56;9.80;99.90
19365;DHT22;9818;48.382;10.850;2022-10-23T00:40:28;8.90;99.90
19365;DHT22;9818;48.382;10.850;2022-10-23T00:42:57;9.80;99.90
19365;DHT22;9818;48.382;10.850;2022-10-23T00:45:27;9.70;99.90
19365;DHT22;9818;48.382;10.850;2022-10-23T00:48:00;9.70;99.90
19365;DHT22;9818;48.382;10.850;2022-10-23T00:50:30;9.60;99.90
19365;DHT22;9818;48.382;10.850;2022-10-23T00:53:01;9.60;99.90
19365;DHT22;9818;48.382;10.850;2022-10-23T00:55:31;9.50;99.90
19365;DHT22;9818;48.382;10.850;2022-10-23T00:58:03;8.40;99.90
19365;DHT22;9818;48.382;10.850;2022-10-23T01:00:40;9.50;99.90
19365;DHT22;9818;48.382;10.850;2022-10-23T01:03:12;9.50;99.90
19365;DHT22;9818;48.382;10.850;2022-10-23T01:05:44;9.60;99.90
19365;DHT22;9818;48.382;10.850;2022-10-23T01:30:21;9.20;99.90
19365;DHT22;9818;48.382;10.850;2022-10-23T01:32:52;9.20;99.90
19365;DHT22;9818;48.382;10.850;2022-10-23T01:35:26;9.20;99.90
19365;DHT22;9818;48.382;10.850;2022-10-23T01:38:02;9.10;99.90
19365;DHT22;9818;48.382;10.850;2022-10-23T01:40:36;9.10;99.90
19365;DHT22;9818;48.382;10.850;2022-10-23T01:43:09;9.00;99.90
19365;DHT22;9818;48.382;10.850;2022-10-23T01:45:46;8.90;99.90
19365;DHT22;9818;48.382;10.850;2022-10-23T01:48:20;8.90;99.90
19365;DHT22;9818;48.382;10.850;2022-10-23T01:50:50;8.90;99.90
19365;DHT22;9818;48.382;10.850;2022-10-23T01:53:20;8.80;99.90
19365;DHT22;9818;48.382;10.850;2022-10-23T01:55:50;8.80;99.90
19365;DHT22;9818;48.382;10.850;2022-10-23T01:58:19;8.80;99.90
19365;DHT22;9818;48.382;10.850;2022-10-23T02:00:52;8.80;99.90
19365;DHT22;9818;48.382;10.850;2022-10-23T02:03:23;8.90;99.90
19365;DHT22;9818;48.382;10.850;2022-10-23T02:05:52;8.80;99.90
19365;DHT22;9818;48.382;10.850;2022-10-23T02:08:20;8.80;99.90
19365;DHT22;9818;48.382;10.850;2022-10-23T02:10:54;8.80;99.90
19365;DHT22;9818;48.382;10.850;2022-10-23T02:13:29;8.70;99.90
19365;DHT22;9818;48.382;10.850;2022-10-23T02:16:07;8.80;99.90
19365;DHT22;9818;48.382;10.850;2022-10-23T02:18:43;8.70;99.90
19365;DHT22;9818;48.382;10.850;2022-10-23T02:21:16;8.70;99.90
19365;DHT22;9818;48.382;10.850;2022-10-23T02:23:51;8.70;99.90
19365;DHT22;9818;48.382;10.850;2022-10-23T02:26:25;8.70;99.90
19365;DHT22;9818;48.382;10.850;2022-10-23T02:28:57;8.70;99.90
19365;DHT22;9818;48.382;10.850;2022-10-23T02:31:30;8.70;99.90
19365;DHT22;9818;48.382;10.850;2022-10-23T02:33:59;8.70;99.90
19365;DHT22;9818;48.382;10.850;2022-10-23T02:36:28;8.70;99.90
19365;DHT22;9818;48.382;10.850;2022-10-23T02:38:57;8.60;99.90
19365;DHT22;9818;48.382;10.850;2022-10-23T02:41:40;8.60;99.90
19365;DHT22;9818;48.382;10.850;2022-10-23T02:44:33;8.50;99.90
19365;DHT22;9818;48.382;10.850;2022-10-23T02:47:29;8.50;99.90
19365;DHT22;9818;48.382;10.850;2022-10-23T02:50:05;8.50;99.90
19365;DHT22;9818;48.382;10.850;2022-10-23T02:52:40;8.60;99.90
19365;DHT22;9818;48.382;10.850;2022-10-23T02:55:20;8.60;99.90
19365;DHT22;9818;48.382;10.850;2022-10-23T02:57:56;8.50;99.90
19365;DHT22;9818;48.382;10.850;2022-10-23T03:00:30;8.50;99.90
19365;DHT22;9818;48.382;10.850;2022-10-23T03:03:07;8.60;99.90
19365;DHT22;9818;48.382;10.850;2022-10-23T03:05:39;8.60;99.90
19365;DHT22;9818;48.382;10.850;2022-10-23T03:08:11;8.60;99.90
19365;DHT22;9818;48.382;10.850;2022-10-23T03:10:40;8.50;99.90
19365;DHT22;9818;48.382;10.850;2022-10-23T03:13:10;8.60;99.90
19365;DHT22;9818;48.382;10.850;2022-10-23T03:15:38;8.50;99.90
19365;DHT22;9818;48.382;10.850;2022-10-23T03:18:10;8.50;99.90
19365;DHT22;9818;48.382;10.850;2022-10-23T03:20:38;8.50;99.90
19365;DHT22;9818;48.382;10.850;2022-10-23T03:23:11;8.50;99.90
19365;DHT22;9818;48.382;10.850;2022-10-23T03:25:40;8.50;99.90
19365;DHT22;9818;48.382;10.850;2022-10-23T03:28:09;8.50;99.90
19365;DHT22;9818;48.382;10.850;2022-10-23T03:30:37;8.50;99.90
19365;DHT22;9818;48.382;10.850;2022-10-23T03:33:08;8.30;99.90
19365;DHT22;9818;48.382;10.850;2022-10-23T03:35:37;8.40;99.90
19365;DHT22;9818;48.382;10.850;2022-10-23T03:38:06;8.40;99.90
19365;DHT22;9818;48.382;10.850;2022-10-23T03:40:34;8.40;99.90
19365;DHT22;9818;48.382;10.850;2022-10-23T03:43:03;8.40;99.90
19365;DHT22;9818;48.382;10.850;2022-10-23T03:45:32;8.30;99.90
19365;DHT22;9818;48.382;10.850;2022-10-23T03:48:03;8.40;99.90
19365;DHT22;9818;48.382;10.850;2022-10-23T03:50:34;8.40;99.90
19365;DHT22;9818;48.382;10.850;2022-10-23T03:53:03;8.40;99.90
19365;DHT22;9818;48.382;10.850;2022-10-23T03:55:32;8.40;99.90
19365;DHT22;9818;48.382;10.850;2022-10-23T03:58:00;8.40;99.90
19365;DHT22;9818;48.382;10.850;2022-10-23T04:00:29;8.30;99.90
19365;DHT22;9818;48.382;10.850;2022-10-23T04:02:58;8.30;99.90
19365;DHT22;9818;48.382;10.850;2022-10-23T04:05:26;8.30;99.90
19365;DHT22;9818;48.382;10.850;2022-10-23T04:07:57;8.30;99.90
19365;DHT22;9818;48.382;10.850;2022-10-23T04:10:26;8.30;99.90
19365;DHT22;9818;48.382;10.850;2022-10-23T04:12:55;8.30;99.90
19365;DHT22;9818;48.382;10.850;2022-10-23T04:15:24;8.30;99.90
19365;DHT22;9818;48.382;10.850;2022-10-23T04:17:52;8.40;99.90
19365;DHT22;9818;48.382;10.850;2022-10-23T04:20:21;8.40;99.90
19365;DHT22;9818;48.382;10.850;2022-10-23T04:22:50;8.30;99.90
19365;DHT22;9818;48.382;10.850;2022-10-23T04:25:21;8.40;99.90
19365;DHT22;9818;48.382;10.850;2022-10-23T04:27:49;8.30;99.90
19365;DHT22;9818;48.382;10.850;2022-10-23T04:30:18;8.30;99.90
19365;DHT22;9818;48.382;10.850;2022-10-23T04:32:49;8.40;99.90
19365;DHT22;9818;48.382;10.850;2022-10-23T04:35:18;8.40;99.90
19365;DHT22;9818;48.382;10.850;2022-10-23T04:37:47;8.40;99.90
19365;DHT22;9818;48.382;10.850;2022-10-23T04:40:16;8.40;99.90
19365;DHT22;9818;48.382;10.850;2022-10-23T04:42:47;8.40;99.90
19365;DHT22;9818;48.382;10.850;2022-10-23T04:45:16;8.40;99.90
19365;DHT22;9818;48.382;10.850;2022-10-23T04:47:44;8.40;99.90
19365;DHT22;9818;48.382;10.850;2022-10-23T04:50:13;8.40;99.90
19365;DHT22;9818;48.382;10.850;2022-10-23T04:52:42;8.40;99.90
19365;DHT22;9818;48.382;10.850;2022-10-23T04:55:11;8.50;99.90
19365;DHT22;9818;48.382;10.850;2022-10-23T04:57:40;8.50;99.90
19365;DHT22;9818;48.382;10.850;2022-10-23T05:00:13;8.50;99.90
19365;DHT22;9818;48.382;10.850;2022-10-23T05:02:42;8.50;99.90
19365;DHT22;9818;48.382;10.850;2022-10-23T05:05:11;8.40;99.90
19365;DHT22;9818;48.382;10.850;2022-10-23T05:07:39;8.40;99.90
19365;DHT22;9818;48.382;10.850;2022-10-23T05:10:08;8.40;99.90
19365;DHT22;9818;48.382;10.850;2022-10-23T05:12:37;8.30;99.90
19365;DHT22;9818;48.382;10.850;2022-10-23T05:15:06;8.30;99.90
19365;DHT22;9818;48.382;10.850;2022-10-23T05:17:40;8.30;99.90
19365;DHT22;9818;48.382;10.850;2022-10-23T05:20:17;8.30;99.90
19365;DHT22;9818;48.382;10.850;2022-10-23T05:22:48;8.30;99.90
19365;DHT22;9818;48.382;10.850;2022-10-23T05:25:17;8.20;99.90
19365;DHT22;9818;48.382;10.850;2022-10-23T05:27:46;8.20;99.90
19365;DHT22;9818;48.382;10.850;2022-10-23T05:30:15;8.20;99.90
19365;DHT22;9818;48.382;10.850;2022-10-23T05:32:46;8.20;99.90
19365;DHT22;9818;48.382;10.850;2022-10-23T05:35:18;8.10;99.90
19365;DHT22;9818;48.382;10.850;2022-10-23T05:37:49;8.20;99.90
19365;DHT22;9818;48.382;10.850;2022-10-23T05:40:18;8.20;99.90
19365;DHT22;9818;48.382;10.850;2022-10-23T05:42:48;8.20;99.90
19365;DHT22;9818;48.382;10.850;2022-10-23T05:45:17;8.30;99.90
19365;DHT22;9818;48.382;10.850;2022-10-23T05:47:48;8.30;99.90
19365;DHT22;9818;48.382;10.850;2022-10-23T05:50:18;8.30;99.90
19365;DHT22;9818;48.382;10.850;2022-10-23T05:52:47;8.30;99.90
19365;DHT22;9818;48.382;10.850;2022-10-23T05:55:16;8.30;99.90
19365;DHT22;9818;48.382;10.850;2022-10-23T05:57:45;8.30;99.90
19365;DHT22;9818;48.382;10.850;2022-10-23T06:00:14;8.30;99.90
19365;DHT22;9818;48.382;10.850;2022-10-23T06:02:42;8.30;99.90
19365;DHT22;9818;48.382;10.850;2022-10-23T06:05:14;8.30;99.90
19365;DHT22;9818;48.382;10.850;2022-10-23T06:07:42;8.40;99.90
19365;DHT22;9818;48.382;10.850;2022-10-23T06:10:11;8.40;99.90
19365;DHT22;9818;48.382;10.850;2022-10-23T06:12:40;8.50;99.90
19365;DHT22;9818;48.382;10.850;2022-10-23T06:15:09;8.40;99.90
19365;DHT22;9818;48.382;10.850;2022-10-23T06:17:38;8.60;99.90
19365;DHT22;9818;48.382;10.850;2022-10-23T06:20:08;8.60;99.90
19365;DHT22;9818;48.382;10.850;2022-10-23T06:22:39;8.70;99.90
19365;DHT22;9818;48.382;10.850;2022-10-23T06:25:08;8.80;99.90
19365;DHT22;9818;48.382;10.850;2022-10-23T06:27:37;9.40;99.90
19365;DHT22;9818;48.382;10.850;2022-10-23T06:30:07;10.20;99.90
19365;DHT22;9818;48.382;10.850;2022-10-23T06:32:36;10.70;99.90
19365;DHT22;9818;48.382;10.850;2022-10-23T06:35:04;10.50;99.90
19365;DHT22;9818;48.382;10.850;2022-10-23T06:37:33;11.60;99.90
19365;DHT22;9818;48.382;10.850;2022-10-23T06:40:06;12.60;99.90
19365;DHT22;9818;48.382;10.850;2022-10-23T06:42:35;12.60;99.90
19365;DHT22;9818;48.382;10.850;2022-10-23T06:45:04;12.20;99.90
19365;DHT22;9818;48.382;10.850;2022-10-23T06:47:33;12.70;99.90
19365;DHT22;9818;48.382;10.850;2022-10-23T06:50:01;13.30;99.90
19365;DHT22;9818;48.382;10.850;2022-10-23T06:52:29;14.20;99.90
19365;DHT22;9818;48.382;10.850;2022-10-23T06:54:58;13.80;99.90
19365;DHT22;9818;48.382;10.850;2022-10-23T06:57:29;14.10;99.90
19365;DHT22;9818;48.382;10.850;2022-10-23T06:59:58;14.50;99.90
19365;DHT22;9818;48.382;10.850;2022-10-23T07:02:26;14.60;99.90
19365;DHT22;9818;48.382;10.850;2022-10-23T07:04:55;14.70;99.90
19365;DHT22;9818;48.382;10.850;2022-10-23T07:07:24;14.90;99.90
19365;DHT22;9818;48.382;10.850;2022-10-23T07:09:52;15.30;99.90
19365;DHT22;9818;48.382;10.850;2022-10-23T07:12:21;17.00;99.90
19365;DHT22;9818;48.382;10.850;2022-10-23T07:14:52;18.10;99.90
19365;DHT22;9818;48.382;10.850;2022-10-23T07:17:21;18.20;99.90
19365;DHT22;9818;48.382;10.850;2022-10-23T07:19:49;19.40;99.90
19365;DHT22;9818;48.382;10.850;2022-10-23T07:22:18;19.70;99.90
19365;DHT22;9818;48.382;10.850;2022-10-23T07:24:47;19.80;99.90
19365;DHT22;9818;48.382;10.850;2022-10-23T07:27:15;20.50;99.90
19365;DHT22;9818;48.382;10.850;2022-10-23T07:29:44;21.40;99.90
19365;DHT22;9818;48.382;10.850;2022-10-23T07:32:15;21.70;99.90
19365;DHT22;9818;48.382;10.850;2022-10-23T07:34:44;20.70;99.90
19365;DHT22;9818;48.382;10.850;2022-10-23T07:37:12;22.00;99.90
19365;DHT22;9818;48.382;10.850;2022-10-23T07:39:41;22.10;99.90
19365;DHT22;9818;48.382;10.850;2022-10-23T07:42:10;22.90;99.90
19365;DHT22;9818;48.382;10.850;2022-10-23T07:44:38;23.60;99.90
19365;DHT22;9818;48.382;10.850;2022-10-23T07:47:07;23.60;99.90
19365;DHT22;9818;48.382;10.850;2022-10-23T07:49:38;23.40;99.90
19365;DHT22;9818;48.382;10.850;2022-10-23T07:52:07;22.90;99.90
19365;DHT22;9818;48.382;10.850;2022-10-23T07:54:35;21.70;99.90
19365;DHT22;9818;48.382;10.850;2022-10-23T07:57:04;22.00;99.90
19365;DHT22;9818;48.382;10.850;2022-10-23T07:59:33;22.50;99.90
19365;DHT22;9818;48.382;10.850;2022-10-23T08:02:02;21.30;99.90
19365;DHT22;9818;48.382;10.850;2022-10-23T08:04:30;21.30;99.90
19365;DHT22;9818;48.382;10.850;2022-10-23T08:07:01;21.30;99.90
19365;DHT22;9818;48.382;10.850;2022-10-23T08:09:30;21.30;99.90
19365;DHT22;9818;48.382;10.850;2022-10-23T08:12:00;21.60;99.90
19365;DHT22;9818;48.382;10.850;2022-10-23T08:14:29;21.40;99.90
19365;DHT22;9818;48.382;10.850;2022-10-23T08:16:57;19.70;99.90
19365;DHT22;9818;48.382;10.850;2022-10-23T08:19:26;20.00;99.90
19365;DHT22;9818;48.382;10.850;2022-10-23T08:21:54;20.20;99.90
19365;DHT22;9818;48.382;10.850;2022-10-23T08:24:26;20.20;99.90
19365;DHT22;9818;48.382;10.850;2022-10-23T08:26:55;21.40;99.90
19365;DHT22;9818;48.382;10.850;2022-10-23T08:29:24;21.00;99.90
19365;DHT22;9818;48.382;10.850;2022-10-23T08:31:53;19.70;99.90
19365;DHT22;9818;48.382;10.850;2022-10-23T08:34:22;18.60;99.90
19365;DHT22;9818;48.382;10.850;2022-10-23T08:36:51;18.70;99.90
19365;DHT22;9818;48.382;10.850;2022-10-23T08:39:20;19.70;99.90
19365;DHT22;9818;48.382;10.850;2022-10-23T08:41:52;20.10;99.90
19365;DHT22;9818;48.382;10.850;2022-10-23T08:44:23;20.20;99.90
19365;DHT22;9818;48.382;10.850;2022-10-23T08:47:00;20.60;99.90
19365;DHT22;9818;48.382;10.850;2022-10-23T08:49:39;19.50;99.90
19365;DHT22;9818;48.382;10.850;2022-10-23T08:52:14;20.40;99.90
19365;DHT22;9818;48.382;10.850;2022-10-23T08:55:03;19.60;99.90
19365;DHT22;9818;48.382;10.850;2022-10-23T08:57:37;19.80;99.90
19365;DHT22;9818;48.382;10.850;2022-10-23T09:00:12;19.10;99.90
19365;DHT22;9818;48.382;10.850;2022-10-23T09:02:43;18.80;99.90
19365;DHT22;9818;48.382;10.850;2022-10-23T09:05:16;18.50;99.90
19365;DHT22;9818;48.382;10.850;2022-10-23T09:08:03;18.00;99.90
19365;DHT22;9818;48.382;10.850;2022-10-23T09:10:50;19.30;99.90
19365;DHT22;9818;48.382;10.850;2022-10-23T09:13:45;20.20;99.90
19365;DHT22;9818;48.382;10.850;2022-10-23T09:16:24;20.70;99.90
19365;DHT22;9818;48.382;10.850;2022-10-23T09:18:57;19.30;99.90
19365;DHT22;9818;48.382;10.850;2022-10-23T09:21:27;19.70;99.90
19365;DHT22;9818;48.382;10.850;2022-10-23T09:23:56;20.10;99.90
19365;DHT22;9818;48.382;10.850;2022-10-23T09:26:24;20.60;99.90
19365;DHT22;9818;48.382;10.850;2022-10-23T09:29:21;21.60;99.90
19365;DHT22;9818;48.382;10.850;2022-10-23T09:31:52;22.00;99.90
19365;DHT22;9818;48.382;10.850;2022-10-23T09:34:23;23.10;99.90
19365;DHT22;9818;48.382;10.850;2022-10-23T09:36:54;23.30;99.90
19365;DHT22;9818;48.382;10.850;2022-10-23T09:39:29;23.80;99.90
19365;DHT22;9818;48.382;10.850;2022-10-23T09:41:58;24.00;99.90
19365;DHT22;9818;48.382;10.850;2022-10-23T09:44:30;23.70;99.90
19365;DHT22;9818;48.382;10.850;2022-10-23T09:47:00;23.40;99.90
19365;DHT22;9818;48.382;10.850;2022-10-23T09:49:30;22.60;99.90
19365;DHT22;9818;48.382;10.850;2022-10-23T09:51:59;23.60;99.90
19365;DHT22;9818;48.382;10.850;2022-10-23T09:54:29;24.60;99.90
19365;DHT22;9818;48.382;10.850;2022-10-23T09:57:03;24.70;99.90
19365;DHT22;9818;48.382;10.850;2022-10-23T09:59:35;24.90;99.90
19365;DHT22;9818;48.382;10.850;2022-10-23T10:02:20;25.60;99.90
19365;DHT22;9818;48.382;10.850;2022-10-23T10:04:53;26.30;99.90
19365;DHT22;9818;48.382;10.850;2022-10-23T10:07:24;25.40;99.90
19365;DHT22;9818;48.382;10.850;2022-10-23T10:09:53;24.20;99.90
19365;DHT22;9818;48.382;10.850;2022-10-23T10:12:43;23.10;99.90
19365;DHT22;9818;48.382;10.850;2022-10-23T10:15:25;24.80;99.90
19365;DHT22;9818;48.382;10.850;2022-10-23T10:18:02;25.50;99.90
19365;DHT22;9818;48.382;10.850;2022-10-23T10:20:44;24.30;99.90
19365;DHT22;9818;48.382;10.850;2022-10-23T10:23:24;22.90;99.90
19365;DHT22;9818;48.382;10.850;2022-10-23T10:26:00;23.20;99.90
19365;DHT22;9818;48.382;10.850;2022-10-23T10:28:44;21.30;99.90
19365;DHT22;9818;48.382;10.850;2022-10-23T10:31:28;22.40;99.90
19365;DHT22;9818;48.382;10.850;2022-10-23T10:34:07;24.10;99.90
19365;DHT22;9818;48.382;10.850;2022-10-23T10:36:45;24.00;99.90
19365;DHT22;9818;48.382;10.850;2022-10-23T10:39:23;25.00;99.90
19365;DHT22;9818;48.382;10.850;2022-10-23T10:42:07;22.50;99.90
19365;DHT22;9818;48.382;10.850;2022-10-23T10:44:52;22.60;99.90
19365;DHT22;9818;48.382;10.850;2022-10-23T10:47:32;21.60;99.90
19365;DHT22;9818;48.382;10.850;2022-10-23T10:50:16;21.50;99.90
19365;DHT22;9818;48.382;10.850;2022-10-23T10:52:49;20.50;99.90
19365;DHT22;9818;48.382;10.850;2022-10-23T10:55:25;21.20;99.90
19365;DHT22;9818;48.382;10.850;2022-10-23T10:57:58;21.30;99.90
19365;DHT22;9818;48.382;10.850;2022-10-23T11:00:28;20.90;99.90
19365;DHT22;9818;48.382;10.850;2022-10-23T11:03:03;21.20;99.90
19365;DHT22;9818;48.382;10.850;2022-10-23T11:05:37;21.60;99.90
19365;DHT22;9818;48.382;10.850;2022-10-23T11:08:11;21.00;99.90
19365;DHT22;9818;48.382;10.850;2022-10-23T11:10:41;21.10;99.90
19365;DHT22;9818;48.382;10.850;2022-10-23T11:13:16;21.10;99.90
19365;DHT22;9818;48.382;10.850;2022-10-23T11:15:49;20.70;99.90
19365;DHT22;9818;48.382;10.850;2022-10-23T11:18:23;21.00;99.90
19365;DHT22;9818;48.382;10.850;2022-10-23T11:20:58;21.10;99.90
19365;DHT22;9818;48.382;10.850;2022-10-23T11:23:39;21.40;99.90
19365;DHT22;9818;48.382;10.850;2022-10-23T11:26:13;21.80;99.90
19365;DHT22;9818;48.382;10.850;2022-10-23T11:28:49;21.00;99.90
19365;DHT22;9818;48.382;10.850;2022-10-23T11:31:23;20.70;99.90
19365;DHT22;9818;48.382;10.850;2022-10-23T11:34:04;20.30;99.90
19365;DHT22;9818;48.382;10.850;2022-10-23T11:36:42;20.60;99.90
19365;DHT22;9818;48.382;10.850;2022-10-23T11:39:14;20.20;99.90
19365;DHT22;9818;48.382;10.850;2022-10-23T11:41:46;19.70;99.90
19365;DHT22;9818;48.382;10.850;2022-10-23T11:44:37;19.60;99.90
19365;DHT22;9818;48.382;10.850;2022-10-23T11:49:52;19.70;99.90
19365;DHT22;9818;48.382;10.850;2022-10-23T11:52:30;20.30;99.90
19365;DHT22;9818;48.382;10.850;2022-10-23T11:54:59;20.30;99.90
19365;DHT22;9818;48.382;10.850;2022-10-23T11:57:28;20.20;99.90
19365;DHT22;9818;48.382;10.850;2022-10-23T11:59:56;20.50;99.90
19365;DHT22;9818;48.382;10.850;2022-10-23T12:02:26;20.70;99.90
19365;DHT22;9818;48.382;10.850;2022-10-23T12:05:00;20.90;99.90
19365;DHT22;9818;48.382;10.850;2022-10-23T12:07:30;20.60;99.90
19365;DHT22;9818;48.382;10.850;2022-10-23T12:10:00;19.70;99.90
19365;DHT22;9818;48.382;10.850;2022-10-23T12:12:30;19.60;99.90
19365;DHT22;9818;48.382;10.850;2022-10-23T12:17:49;19.70;99.90
19365;DHT22;9818;48.382;10.850;2022-10-23T12:20:24;20.10;99.90
19365;DHT22;9818;48.382;10.850;2022-10-23T12:22:59;20.40;99.90
19365;DHT22;9818;48.382;10.850;2022-10-23T12:25:31;20.60;99.90
19365;DHT22;9818;48.382;10.850;2022-10-23T12:28:02;20.50;99.90
19365;DHT22;9818;48.382;10.850;2022-10-23T12:30:33;20.50;99.90
19365;DHT22;9818;48.382;10.850;2022-10-23T12:33:05;20.30;99.90
19365;DHT22;9818;48.382;10.850;2022-10-23T12:35:48;20.70;99.90
19365;DHT22;9818;48.382;10.850;2022-10-23T12:38:21;20.50;99.90
19365;DHT22;9818;48.382;10.850;2022-10-23T12:40:50;20.60;99.90
19365;DHT22;9818;48.382;10.850;2022-10-23T12:43:25;20.50;99.90
19365;DHT22;9818;48.382;10.850;2022-10-23T12:45:54;21.00;99.90
19365;DHT22;9818;48.382;10.850;2022-10-23T12:48:24;21.00;99.90
19365;DHT22;9818;48.382;10.850;2022-10-23T12:50:55;20.80;99.90
19365;DHT22;9818;48.382;10.850;2022-10-23T12:53:23;21.10;99.90
19365;DHT22;9818;48.382;10.850;2022-10-23T12:55:52;21.30;99.90
19365;DHT22;9818;48.382;10.850;2022-10-23T12:58:24;21.70;99.90
19365;DHT22;9818;48.382;10.850;2022-10-23T13:00:55;21.90;99.90
19365;DHT22;9818;48.382;10.850;2022-10-23T13:03:24;21.90;99.90
19365;DHT22;9818;48.382;10.850;2022-10-23T13:05:56;21.50;99.90
19365;DHT22;9818;48.382;10.850;2022-10-23T13:08:28;21.70;99.90
19365;DHT22;9818;48.382;10.850;2022-10-23T13:10:59;22.10;99.90
19365;DHT22;9818;48.382;10.850;2022-10-23T13:13:27;22.00;99.90
19365;DHT22;9818;48.382;10.850;2022-10-23T13:15:56;21.60;99.90
19365;DHT22;9818;48.382;10.850;2022-10-23T13:18:24;21.50;99.90
19365;DHT22;9818;48.382;10.850;2022-10-23T13:20:58;21.40;99.90
19365;DHT22;9818;48.382;10.850;2022-10-23T13:23:28;20.90;99.90
19365;DHT22;9818;48.382;10.850;2022-10-23T13:25:58;20.60;99.90
19365;DHT22;9818;48.382;10.850;2022-10-23T13:28:27;20.40;99.90
19365;DHT22;9818;48.382;10.850;2022-10-23T13:30:58;20.90;99.90
19365;DHT22;9818;48.382;10.850;2022-10-23T13:33:29;21.40;99.90
19365;DHT22;9818;48.382;10.850;2022-10-23T13:36:02;20.90;99.90
19365;DHT22;9818;48.382;10.850;2022-10-23T13:38:31;21.50;99.90
19365;DHT22;9818;48.382;10.850;2022-10-23T13:41:00;21.20;99.90
19365;DHT22;9818;48.382;10.850;2022-10-23T13:43:29;21.20;99.90
19365;DHT22;9818;48.382;10.850;2022-10-23T13:45:58;21.20;99.90
19365;DHT22;9818;48.382;10.850;2022-10-23T13:48:27;20.80;99.90
19365;DHT22;9818;48.382;10.850;2022-10-23T13:50:57;21.20;99.90
19365;DHT22;9818;48.382;10.850;2022-10-23T13:53:31;21.00;99.90
19365;DHT22;9818;48.382;10.850;2022-10-23T13:55:59;20.90;99.90
19365;DHT22;9818;48.382;10.850;2022-10-23T13:58:27;20.80;99.90
19365;DHT22;9818;48.382;10.850;2022-10-23T14:00:56;20.90;99.90
19365;DHT22;9818;48.382;10.850;2022-10-23T14:03:24;21.10;99.90
19365;DHT22;9818;48.382;10.850;2022-10-23T14:05:53;21.20;99.90
19365;DHT22;9818;48.382;10.850;2022-10-23T14:08:21;20.80;99.90
19365;DHT22;9818;48.382;10.850;2022-10-23T14:10:52;20.60;99.90
19365;DHT22;9818;48.382;10.850;2022-10-23T14:13:21;20.70;99.90
19365;DHT22;9818;48.382;10.850;2022-10-23T14:15:51;20.80;99.90
19365;DHT22;9818;48.382;10.850;2022-10-23T14:18:20;20.70;99.90
19365;DHT22;9818;48.382;10.850;2022-10-23T14:20:48;20.60;99.90
19365;DHT22;9818;48.382;10.850;2022-10-23T14:23:17;20.50;99.90
19365;DHT22;9818;48.382;10.850;2022-10-23T14:25:45;20.50;99.90
19365;DHT22;9818;48.382;10.850;2022-10-23T14:28:16;20.50;99.90
19365;DHT22;9818;48.382;10.850;2022-10-23T14:30:45;20.50;99.90
19365;DHT22;9818;48.382;10.850;2022-10-23T14:33:13;20.30;99.90
19365;DHT22;9818;48.382;10.850;2022-10-23T14:35:41;20.30;99.90
19365;DHT22;9818;48.382;10.850;2022-10-23T14:38:10;20.20;99.90
19365;DHT22;9818;48.382;10.850;2022-10-23T14:40:38;20.10;99.90
19365;DHT22;9818;48.382;10.850;2022-10-23T14:43:07;20.10;99.90
19365;DHT22;9818;48.382;10.850;2022-10-23T14:45:38;20.00;99.90
19365;DHT22;9818;48.382;10.850;2022-10-23T14:48:06;20.10;99.90
19365;DHT22;9818;48.382;10.850;2022-10-23T14:50:35;20.00;99.90
19365;DHT22;9818;48.382;10.850;2022-10-23T14:53:04;19.90;99.90
19365;DHT22;9818;48.382;10.850;2022-10-23T14:55:32;19.90;99.90
19365;DHT22;9818;48.382;10.850;2022-10-23T14:58:01;19.70;99.90
19365;DHT22;9818;48.382;10.850;2022-10-23T15:00:29;19.70;99.90
19365;DHT22;9818;48.382;10.850;2022-10-23T15:03:00;19.70;99.90
19365;DHT22;9818;48.382;10.850;2022-10-23T15:05:29;19.50;99.90
19365;DHT22;9818;48.382;10.850;2022-10-23T15:07:57;19.50;99.90
19365;DHT22;9818;48.382;10.850;2022-10-23T15:10:26;19.30;99.90
19365;DHT22;9818;48.382;10.850;2022-10-23T15:12:54;19.30;99.90
19365;DHT22;9818;48.382;10.850;2022-10-23T15:15:23;19.20;99.90
19365;DHT22;9818;48.382;10.850;2022-10-23T15:17:51;19.00;99.90
19365;DHT22;9818;48.382;10.850;2022-10-23T15:20:22;19.00;99.90
19365;DHT22;9818;48.382;10.850;2022-10-23T15:22:50;19.00;99.90
19365;DHT22;9818;48.382;10.850;2022-10-23T15:25:19;18.90;99.90
19365;DHT22;9818;48.382;10.850;2022-10-23T15:27:47;18.80;99.90
19365;DHT22;9818;48.382;10.850;2022-10-23T15:30:16;18.60;99.90
19365;DHT22;9818;48.382;10.850;2022-10-23T15:32:44;18.50;99.90
19365;DHT22;9818;48.382;10.850;2022-10-23T15:35:13;18.40;99.90
19365;DHT22;9818;48.382;10.850;2022-10-23T15:37:44;18.40;99.90
19365;DHT22;9818;48.382;10.850;2022-10-23T15:40:12;18.30;99.90
19365;DHT22;9818;48.382;10.850;2022-10-23T15:42:41;18.30;99.90
19365;DHT22;9818;48.382;10.850;2022-10-23T15:45:09;18.20;99.90
19365;DHT22;9818;48.382;10.850;2022-10-23T15:47:40;18.20;99.90
19365;DHT22;9818;48.382;10.850;2022-10-23T15:50:09;18.20;99.90
19365;DHT22;9818;48.382;10.850;2022-10-23T15:52:37;18.10;99.90
19365;DHT22;9818;48.382;10.850;2022-10-23T15:55:08;18.00;99.90
19365;DHT22;9818;48.382;10.850;2022-10-23T15:57:38;18.00;99.90
19365;DHT22;9818;48.382;10.850;2022-10-23T16:00:07;17.90;99.90
19365;DHT22;9818;48.382;10.850;2022-10-23T16:02:36;17.80;99.90
19365;DHT22;9818;48.382;10.850;2022-10-23T16:05:05;17.70;99.90
19365;DHT22;9818;48.382;10.850;2022-10-23T16:07:33;17.70;99.90
19365;DHT22;9818;48.382;10.850;2022-10-23T16:10:01;17.60;99.90
19365;DHT22;9818;48.382;10.850;2022-10-23T16:12:33;17.60;99.90
19365;DHT22;9818;48.382;10.850;2022-10-23T16:15:01;17.60;99.90
19365;DHT22;9818;48.382;10.850;2022-10-23T16:17:32;17.50;99.90
19365;DHT22;9818;48.382;10.850;2022-10-23T16:20:00;17.40;99.90
19365;DHT22;9818;48.382;10.850;2022-10-23T16:22:29;17.40;99.90
19365;DHT22;9818;48.382;10.850;2022-10-23T16:24:57;17.30;99.90
19365;DHT22;9818;48.382;10.850;2022-10-23T16:27:25;17.20;99.90
19365;DHT22;9818;48.382;10.850;2022-10-23T16:29:56;17.10;99.90